Time;durP1;ratioP1;P1;durP2;ratioP2;P2;SDS_P1;SDS_P2;PMS_P1;PMS_P2;Temp;Humidity;BMP_temperature;BMP_pressure;BME280_temperature;BME280_humidity;BME280_pressure;Samples;Min_cycle;Max_cycle;Signal;HPM_P1;HPM_P2
2021/09/10 00:00:54;;;;;;;2.17;1.90;;;12.00;99.90;;;;;;6193727;28;20235;-69
2021/09/10 00:04:01;;;;;;;3.90;2.30;;;12.00;99.90;;;;;;6193775;28;20236;-69
2021/09/10 00:07:05;;;;;;;3.27;2.30;;;11.90;99.90;;;;;;6195250;28;20333;-69
2021/09/10 00:10:08;;;;;;;2.57;2.20;;;11.90;99.90;;;;;;6210210;28;20223;-69
2021/09/10 00:13:11;;;;;;;5.37;2.40;;;11.90;99.90;;;;;;6194974;28;20816;-69
2021/09/10 00:16:13;;;;;;;3.73;2.30;;;11.80;99.90;;;;;;6206010;28;20205;-69
2021/09/10 00:19:15;;;;;;;3.53;2.50;;;11.80;99.90;;;;;;6196273;28;20562;-69
2021/09/10 00:22:17;;;;;;;4.73;2.57;;;11.80;99.90;;;;;;6198425;28;20218;-69
2021/09/10 00:25:20;;;;;;;4.30;2.47;;;11.80;99.90;;;;;;6198487;28;20215;-69
2021/09/10 00:28:25;;;;;;;3.27;2.67;;;11.80;99.90;;;;;;6181980;28;20340;-69
2021/09/10 00:31:27;;;;;;;3.10;2.30;;;11.70;99.90;;;;;;6198159;28;20196;-69
2021/09/10 00:34:34;;;;;;;2.60;2.40;;;11.70;99.90;;;;;;6200237;28;20202;-70
2021/09/10 00:37:37;;;;;;;2.90;2.50;;;11.60;99.90;;;;;;6189894;28;20199;-69
2021/09/10 00:40:39;;;;;;;6.47;2.60;;;11.50;99.90;;;;;;6185686;28;20619;-69
2021/09/10 00:43:41;;;;;;;3.87;2.63;;;11.50;99.90;;;;;;6199580;28;20210;-69
2021/09/10 00:46:44;;;;;;;3.77;2.40;;;11.50;99.90;;;;;;6197742;28;20206;-70
2021/09/10 00:49:46;;;;;;;2.87;2.57;;;11.40;99.90;;;;;;6199075;28;20201;-69
2021/09/10 00:52:48;;;;;;;5.33;2.50;;;11.40;99.90;;;;;;6197946;28;20193;-69
2021/09/10 00:55:50;;;;;;;4.13;2.73;;;11.40;99.90;;;;;;6198909;28;20600;-69
2021/09/10 00:58:56;;;;;;;3.10;2.37;;;11.40;99.90;;;;;;6198825;28;20193;-69
2021/09/10 01:02:00;;;;;;;4.77;2.93;;;11.30;99.90;;;;;;6198746;28;20241;-69
2021/09/10 01:05:04;;;;;;;3.40;2.70;;;11.30;99.90;;;;;;6198476;28;20214;-69
2021/09/10 01:08:07;;;;;;;4.73;2.50;;;11.20;99.90;;;;;;6198659;28;20657;-69
2021/09/10 01:11:10;;;;;;;5.03;2.73;;;11.20;99.90;;;;;;6198685;28;20186;-69
2021/09/10 01:14:13;;;;;;;3.20;2.63;;;11.20;99.90;;;;;;6215945;28;20204;-69
2021/09/10 01:17:16;;;;;;;6.47;2.83;;;11.20;99.90;;;;;;6221625;28;20284;-69
2021/09/10 01:20:18;;;;;;;3.67;2.53;;;11.10;99.90;;;;;;6174182;28;20320;-69
2021/09/10 01:23:20;;;;;;;3.03;2.73;;;11.10;99.90;;;;;;6209975;28;20216;-69
2021/09/10 01:26:23;;;;;;;4.03;2.47;;;11.10;99.90;;;;;;6197037;28;20197;-70
2021/09/10 01:29:26;;;;;;;3.33;2.43;;;11.00;99.90;;;;;;6197599;28;20653;-70
2021/09/10 01:32:28;;;;;;;3.23;2.90;;;11.10;99.90;;;;;;6198130;28;20196;-69
2021/09/10 01:35:31;;;;;;;4.20;3.00;;;11.00;99.90;;;;;;6196855;28;20224;-69
2021/09/10 01:38:33;;;;;;;4.10;2.60;;;11.00;99.90;;;;;;6197896;28;20284;-69
2021/09/10 01:41:35;;;;;;;4.77;3.00;;;10.90;99.90;;;;;;6196603;28;20192;-69
2021/09/10 01:44:37;;;;;;;4.97;2.60;;;10.90;99.90;;;;;;6197728;28;20209;-71
2021/09/10 01:47:40;;;;;;;4.73;3.00;;;10.90;99.90;;;;;;6198338;28;20201;-69
2021/09/10 01:50:42;;;;;;;3.10;2.80;;;10.90;99.90;;;;;;6197536;28;20612;-69
2021/09/10 01:53:46;;;;;;;3.50;2.70;;;10.90;99.90;;;;;;6212692;28;20251;-69
2021/09/10 01:56:48;;;;;;;5.40;2.93;;;10.90;99.90;;;;;;6196265;28;20200;-69
2021/09/10 01:59:50;;;;;;;3.83;3.00;;;10.90;99.90;;;;;;6212518;28;20228;-69
2021/09/10 02:02:52;;;;;;;7.23;3.13;;;10.90;99.90;;;;;;6197012;28;20240;-70
2021/09/10 02:05:55;;;;;;;4.27;2.97;;;10.80;99.90;;;;;;6197215;28;20540;-69
2021/09/10 02:08:57;;;;;;;5.33;2.90;;;10.80;99.90;;;;;;6197306;28;20555;-69
2021/09/10 02:12:01;;;;;;;4.53;3.07;;;10.80;99.90;;;;;;6197114;28;20208;-69
2021/09/10 02:15:06;;;;;;;4.60;2.60;;;10.70;99.90;;;;;;6206623;28;20198;-69
2021/09/10 02:18:08;;;;;;;5.67;2.87;;;10.70;99.90;;;;;;6203419;28;20190;-69
2021/09/10 02:21:10;;;;;;;5.87;2.57;;;10.70;99.90;;;;;;6195496;28;20201;-69
2021/09/10 02:24:12;;;;;;;3.77;3.07;;;10.70;99.90;;;;;;6197158;28;20209;-69
2021/09/10 02:27:16;;;;;;;3.97;2.80;;;10.70;99.90;;;;;;6196783;28;20201;-69
2021/09/10 02:30:18;;;;;;;2.70;2.47;;;10.70;99.90;;;;;;6211846;28;20197;-69
2021/09/10 02:33:20;;;;;;;5.03;2.73;;;10.70;99.90;;;;;;6195266;28;20205;-69
2021/09/10 02:36:23;;;;;;;4.33;3.13;;;10.60;99.90;;;;;;6195407;28;20189;-69
2021/09/10 02:39:25;;;;;;;4.07;2.93;;;10.60;99.90;;;;;;6196723;28;20203;-70
2021/09/10 02:42:27;;;;;;;4.43;3.03;;;10.60;99.90;;;;;;6195449;28;20197;-69
2021/09/10 02:45:29;;;;;;;4.93;3.17;;;10.60;99.90;;;;;;6196719;28;20214;-69
2021/09/10 02:48:32;;;;;;;3.57;3.03;;;10.60;99.90;;;;;;6211224;28;20347;-69
2021/09/10 02:51:34;;;;;;;2.90;2.60;;;10.60;99.90;;;;;;6195282;28;20557;-69
2021/09/10 02:54:36;;;;;;;3.90;3.10;;;10.50;99.90;;;;;;6196465;28;20189;-69
2021/09/10 02:57:39;;;;;;;4.07;3.10;;;10.60;99.90;;;;;;6178825;28;20752;-70
2021/09/10 03:00:43;;;;;;;5.80;2.90;;;10.50;99.90;;;;;;6195966;28;20219;-69
2021/09/10 03:03:46;;;;;;;4.07;3.20;;;10.50;99.90;;;;;;6196022;28;20316;-69
2021/09/10 03:06:48;;;;;;;3.67;2.83;;;10.50;99.90;;;;;;6186903;28;20333;-69
2021/09/10 03:09:50;;;;;;;4.10;3.07;;;10.50;99.90;;;;;;6204915;28;20661;-69
2021/09/10 03:12:53;;;;;;;5.03;3.20;;;10.50;99.90;;;;;;6195555;28;20283;-69
2021/09/10 03:15:55;;;;;;;3.87;3.07;;;10.40;99.90;;;;;;6200407;28;20193;-70
2021/09/10 03:18:57;;;;;;;3.33;2.87;;;10.40;99.90;;;;;;6194352;28;20600;-69
2021/09/10 03:22:00;;;;;;;4.40;3.27;;;10.40;99.90;;;;;;6196253;28;20205;-69
2021/09/10 03:25:03;;;;;;;5.13;3.33;;;10.40;99.90;;;;;;6197980;28;20703;-69
2021/09/10 03:28:05;;;;;;;3.80;3.03;;;10.40;99.90;;;;;;6218706;28;20190;-69
2021/09/10 03:31:08;;;;;;;3.77;2.90;;;10.40;99.90;;;;;;6196149;28;20196;-69
2021/09/10 03:34:10;;;;;;;4.03;3.37;;;10.40;99.90;;;;;;6202489;28;20692;-69
2021/09/10 03:37:13;;;;;;;4.90;3.37;;;10.40;99.90;;;;;;6179057;28;20558;-69
2021/09/10 03:40:15;;;;;;;5.53;3.40;;;10.40;99.90;;;;;;6199750;28;20204;-69
2021/09/10 03:43:18;;;;;;;3.97;3.30;;;10.40;99.90;;;;;;6195604;28;20280;-69
2021/09/10 03:46:21;;;;;;;4.67;3.20;;;10.40;99.90;;;;;;6195874;28;20201;-69
2021/09/10 03:49:23;;;;;;;4.13;3.27;;;10.40;99.90;;;;;;6195480;28;20193;-70
2021/09/10 03:52:25;;;;;;;5.07;3.30;;;10.40;99.90;;;;;;6194321;28;20686;-70
2021/09/10 03:55:27;;;;;;;4.23;3.60;;;10.40;99.90;;;;;;6200077;28;20244;-69
2021/09/10 03:58:30;;;;;;;5.83;3.60;;;10.30;99.90;;;;;;6199051;28;20204;-69
2021/09/10 04:01:34;;;;;;;3.97;3.20;;;10.30;99.90;;;;;;6200059;28;20233;-69
2021/09/10 04:04:37;;;;;;;4.90;3.30;;;10.30;99.90;;;;;;6199927;28;20300;-69
2021/09/10 04:07:41;;;;;;;5.43;3.50;;;10.30;99.90;;;;;;6198620;28;20205;-70
2021/09/10 04:10:44;;;;;;;4.90;3.67;;;10.20;99.90;;;;;;6198803;28;20192;-70
2021/09/10 04:13:46;;;;;;;4.90;3.73;;;10.20;99.90;;;;;;6199894;28;20265;-69
2021/09/10 04:16:49;;;;;;;4.30;3.43;;;10.20;99.90;;;;;;6221102;28;20197;-69
2021/09/10 04:19:51;;;;;;;3.47;2.70;;;10.20;99.90;;;;;;6199753;28;20194;-69
2021/09/10 04:22:53;;;;;;;4.63;3.27;;;10.30;99.90;;;;;;6199822;28;20243;-69
2021/09/10 04:25:55;;;;;;;5.67;3.67;;;10.20;99.90;;;;;;6199389;28;20217;-69
2021/09/10 04:28:57;;;;;;;4.63;3.50;;;10.20;99.90;;;;;;6214739;28;20200;-70
2021/09/10 04:32:00;;;;;;;4.80;3.03;;;10.30;99.90;;;;;;6199848;28;20736;-70
2021/09/10 04:35:03;;;;;;;7.00;3.50;;;10.20;99.90;;;;;;6199286;28;20196;-69
2021/09/10 04:38:05;;;;;;;6.07;3.63;;;10.30;99.90;;;;;;6214171;28;20292;-69
2021/09/10 04:41:08;;;;;;;4.27;3.40;;;10.30;99.90;;;;;;6181316;28;20209;-69
2021/09/10 04:44:10;;;;;;;3.50;3.20;;;10.30;99.90;;;;;;6198683;28;20213;-70
2021/09/10 04:47:12;;;;;;;3.90;3.30;;;10.30;99.90;;;;;;6197783;28;20197;-70
2021/09/10 04:50:15;;;;;;;4.17;3.10;;;10.30;99.90;;;;;;6197431;28;20201;-69
2021/09/10 04:53:17;;;;;;;6.70;3.70;;;10.30;99.90;;;;;;6197176;28;20273;-70
2021/09/10 04:56:20;;;;;;;3.70;3.20;;;10.40;99.90;;;;;;6198720;28;20197;-70
2021/09/10 04:59:22;;;;;;;3.47;3.03;;;10.40;99.90;;;;;;6198579;28;20245;-70
2021/09/10 05:02:25;;;;;;;3.10;2.70;;;10.50;99.90;;;;;;6198258;28;20233;-70
2021/09/10 05:05:27;;;;;;;3.40;2.93;;;10.60;99.90;;;;;;6197275;28;20204;-70
2021/09/10 05:08:30;;;;;;;3.23;2.93;;;10.60;99.90;;;;;;6213435;28;20193;-70
2021/09/10 05:11:32;;;;;;;4.73;3.33;;;10.70;99.90;;;;;;6213004;28;20193;-70
2021/09/10 05:14:35;;;;;;;3.63;3.07;;;10.80;99.90;;;;;;6203745;28;20271;-70
2021/09/10 05:17:37;;;;;;;4.37;3.40;;;10.80;99.90;;;;;;6200855;28;20570;-70
2021/09/10 05:20:40;;;;;;;5.50;3.10;;;10.80;99.90;;;;;;6196872;28;20241;-70
2021/09/10 05:23:42;;;;;;;4.30;3.30;;;10.90;99.90;;;;;;6197807;28;20196;-70
2021/09/10 05:26:44;;;;;;;6.87;3.10;;;10.90;99.90;;;;;;6196468;28;20200;-70
2021/09/10 05:29:47;;;;;;;3.57;2.63;;;11.00;99.90;;;;;;6212814;28;20587;-70
2021/09/10 05:32:49;;;;;;;6.43;3.07;;;11.00;99.90;;;;;;6196247;28;20193;-70
2021/09/10 05:35:51;;;;;;;2.90;2.57;;;11.00;99.90;;;;;;6197846;28;20197;-70
2021/09/10 05:38:53;;;;;;;5.40;3.17;;;11.10;99.90;;;;;;6197309;28;20201;-71
2021/09/10 05:41:55;;;;;;;4.60;3.30;;;11.20;99.90;;;;;;6196361;28;20198;-70
2021/09/10 05:44:58;;;;;;;4.43;3.40;;;11.20;99.90;;;;;;6197659;28;20615;-70
2021/09/10 05:48:00;;;;;;;6.00;3.40;;;11.20;99.90;;;;;;6197328;28;20193;-70
2021/09/10 05:51:02;;;;;;;3.13;2.83;;;11.20;99.90;;;;;;6197446;28;20269;-70
2021/09/10 05:54:05;;;;;;;5.57;3.27;;;11.30;99.90;;;;;;6197394;28;20194;-70
2021/09/10 05:57:07;;;;;;;3.30;3.00;;;11.30;99.90;;;;;;6197073;28;20672;-70
2021/09/10 06:00:11;;;;;;;5.67;3.27;;;11.40;99.90;;;;;;6211971;28;20214;-71
2021/09/10 06:03:13;;;;;;;5.73;3.17;;;11.40;99.90;;;;;;6196982;28;20222;-70
2021/09/10 06:06:16;;;;;;;7.00;3.33;;;11.50;99.90;;;;;;6196789;28;20205;-70
2021/09/10 06:09:18;;;;;;;3.87;2.80;;;11.60;99.90;;;;;;6196946;28;20189;-70
2021/09/10 06:12:23;;;;;;;4.03;3.63;;;11.60;99.90;;;;;;6196682;28;20241;-70
2021/09/10 06:15:25;;;;;;;3.93;3.10;;;11.70;99.90;;;;;;6224169;28;20305;-72
2021/09/10 06:18:27;;;;;;;3.83;3.37;;;11.70;99.90;;;;;;6184859;28;20210;-70
2021/09/10 06:21:29;;;;;;;4.40;3.13;;;11.70;99.90;;;;;;6179520;28;20202;-70
2021/09/10 06:24:31;;;;;;;4.17;3.17;;;11.70;99.90;;;;;;6196800;28;20215;-70
2021/09/10 06:27:34;;;;;;;3.17;2.80;;;11.80;99.90;;;;;;6211487;28;20198;-70
2021/09/10 06:30:36;;;;;;;3.77;3.03;;;11.80;99.90;;;;;;6196567;28;20264;-71
2021/09/10 06:33:38;;;;;;;3.30;3.00;;;11.90;99.90;;;;;;6196362;28;20271;-70
2021/09/10 06:36:40;;;;;;;4.50;3.47;;;11.90;99.90;;;;;;6196242;28;20203;-70
2021/09/10 06:39:42;;;;;;;3.33;3.00;;;12.00;99.90;;;;;;6196192;28;20660;-70
2021/09/10 06:42:45;;;;;;;5.10;3.33;;;12.00;99.90;;;;;;6194646;28;20301;-70
2021/09/10 06:45:48;;;;;;;3.30;2.73;;;12.10;99.90;;;;;;6194755;28;20210;-70
2021/09/10 06:48:50;;;;;;;5.10;3.63;;;12.20;99.90;;;;;;6195934;28;20199;-70
2021/09/10 06:51:52;;;;;;;10.83;3.73;;;12.30;99.90;;;;;;6195019;28;20193;-71
2021/09/10 06:54:54;;;;;;;5.50;3.10;;;12.40;99.90;;;;;;6210783;28;20202;-70
2021/09/10 06:57:56;;;;;;;3.30;3.00;;;12.60;99.90;;;;;;6179173;28;20218;-70
2021/09/10 07:00:59;;;;;;;3.60;3.10;;;12.60;99.90;;;;;;6195618;28;20238;-70
2021/09/10 07:04:02;;;;;;;4.27;3.20;;;12.70;99.90;;;;;;6195906;28;20682;-70
2021/09/10 07:07:04;;;;;;;4.63;3.03;;;12.80;99.90;;;;;;6186542;28;20204;-70
2021/09/10 07:10:07;;;;;;;3.20;2.90;;;12.90;99.90;;;;;;6180416;28;20232;-70
2021/09/10 07:13:09;;;;;;;3.53;2.90;;;13.00;99.90;;;;;;6195601;28;20227;-70
2021/09/10 07:16:11;;;;;;;3.00;2.70;;;13.20;99.90;;;;;;6208495;28;20193;-70
2021/09/10 07:19:13;;;;;;;4.60;3.40;;;13.30;99.90;;;;;;6194323;28;20231;-71
2021/09/10 07:22:16;;;;;;;3.57;3.03;;;13.50;99.90;;;;;;6195321;28;20204;-70
2021/09/10 07:25:18;;;;;;;3.23;2.93;;;13.70;99.90;;;;;;6209984;28;20312;-70
2021/09/10 07:28:21;;;;;;;5.73;3.10;;;13.90;99.90;;;;;;6194759;28;20193;-70
2021/09/10 07:31:23;;;;;;;3.07;2.40;;;14.20;99.90;;;;;;6193894;28;20191;-70
2021/09/10 07:34:26;;;;;;;3.17;2.77;;;14.50;99.90;;;;;;6195256;28;20200;-70
2021/09/10 07:37:29;;;;;;;4.63;2.97;;;14.80;99.90;;;;;;6194988;28;20196;-71
2021/09/10 07:40:32;;;;;;;3.20;2.80;;;15.10;99.90;;;;;;6194991;28;20196;-71
2021/09/10 07:43:34;;;;;;;4.50;3.03;;;15.50;99.90;;;;;;6195257;28;20736;-71
2021/09/10 07:46:37;;;;;;;4.50;2.90;;;15.80;99.90;;;;;;6194979;28;20206;-71
2021/09/10 07:49:39;;;;;;;4.57;2.90;;;16.20;99.90;;;;;;6177581;28;20631;-71
2021/09/10 07:52:42;;;;;;;3.77;2.30;;;16.60;99.90;;;;;;6194832;28;20186;-71
2021/09/10 07:55:44;;;;;;;3.97;2.40;;;16.90;99.90;;;;;;6195264;28;20205;-70
2021/09/10 07:58:46;;;;;;;5.40;2.47;;;17.30;99.90;;;;;;6194882;28;20328;-71
2021/09/10 08:01:48;;;;;;;4.10;2.60;;;17.60;99.90;;;;;;6193925;28;20229;-70
2021/09/10 08:04:51;;;;;;;3.27;2.47;;;18.10;99.90;;;;;;6194627;28;20300;-71
2021/09/10 08:07:53;;;;;;;3.00;2.27;;;18.50;99.90;;;;;;6194543;28;20190;-70
2021/09/10 08:10:55;;;;;;;4.10;2.17;;;18.90;99.90;;;;;;6194185;28;20189;-70
2021/09/10 08:13:57;;;;;;;3.63;2.33;;;19.40;99.90;;;;;;6195152;28;20193;-70
2021/09/10 08:16:59;;;;;;;3.40;2.40;;;19.80;99.90;;;;;;6211962;28;20315;-70
2021/09/10 08:20:02;;;;;;;3.10;2.20;;;20.30;99.90;;;;;;6194683;28;20228;-71
2021/09/10 08:23:05;;;;;;;2.90;2.40;;;20.80;99.00;;;;;;6193697;28;20672;-71
2021/09/10 08:26:07;;;;;;;3.43;2.17;;;21.10;96.10;;;;;;6194628;28;20217;-70
2021/09/10 08:29:09;;;;;;;4.23;2.27;;;21.40;94.20;;;;;;6194516;28;20193;-70
2021/09/10 08:32:11;;;;;;;4.17;2.50;;;21.80;94.30;;;;;;6194560;28;20197;-70
2021/09/10 08:35:13;;;;;;;6.30;2.63;;;22.20;91.20;;;;;;6192954;28;20418;-71
2021/09/10 08:38:16;;;;;;;3.23;2.53;;;22.40;91.80;;;;;;6209211;28;20210;-70
2021/09/10 08:41:23;;;;;;;4.17;2.33;;;22.70;90.80;;;;;;6197038;28;20193;-71
2021/09/10 08:44:28;;;;;;;4.97;2.67;;;22.90;88.30;;;;;;6198716;28;20305;-71
2021/09/10 08:47:32;;;;;;;5.73;2.50;;;23.20;88.00;;;;;;6199129;28;20190;-71
2021/09/10 08:50:34;;;;;;;4.13;2.33;;;23.50;88.10;;;;;;6197421;28;20201;-70
2021/09/10 08:53:36;;;;;;;2.97;2.33;;;23.80;86.00;;;;;;6198519;28;20280;-70
2021/09/10 08:56:39;;;;;;;4.43;2.20;;;24.00;84.10;;;;;;6197343;28;20189;-71
2021/09/10 08:59:41;;;;;;;3.83;2.30;;;24.20;85.30;;;;;;6196948;28;20224;-70
2021/09/10 09:03:00;;;;;;;3.27;2.40;;;24.40;75.40;;;;;;6196942;28;20304;-71
2021/09/10 09:06:02;;;;;;;2.97;2.30;;;24.60;76.60;;;;;;6197058;28;20771;-70
2021/09/10 09:09:04;;;;;;;3.33;2.63;;;24.80;73.70;;;;;;6197489;28;20637;-70
2021/09/10 09:12:11;;;;;;;5.77;2.53;;;24.90;69.50;;;;;;6198143;28;20197;-70
2021/09/10 09:15:13;;;;;;;5.97;2.53;;;24.90;67.00;;;;;;6207458;28;20221;-70
2021/09/10 09:18:15;;;;;;;5.67;3.13;;;25.00;66.50;;;;;;6222147;28;20212;-70
2021/09/10 09:21:35;;;;;;;4.57;2.70;;;25.10;66.10;;;;;;6196580;28;20193;-70
2021/09/10 09:24:37;;;;;;;4.13;2.60;;;25.40;67.40;;;;;;6198091;28;20308;-70
2021/09/10 09:27:39;;;;;;;6.10;3.13;;;25.50;64.20;;;;;;6198435;28;20220;-70
2021/09/10 09:30:43;;;;;;;3.90;2.47;;;25.60;62.00;;;;;;6196444;28;20182;-70
2021/09/10 09:33:45;;;;;;;6.00;2.50;;;25.70;61.10;;;;;;6196914;28;20735;-70
2021/09/10 09:36:53;;;;;;;4.78;2.80;;;25.80;59.60;;;;;;6196659;28;20308;-69
2021/09/10 09:40:02;;;;;;;3.15;2.58;;;25.90;60.40;;;;;;6197573;28;20275;-70
2021/09/10 09:43:17;;;;;;;6.35;2.80;;;26.00;59.00;;;;;;6212404;28;20205;-70
2021/09/10 09:46:22;;;;;;;4.68;2.58;;;26.00;58.90;;;;;;6197300;28;20209;-71
2021/09/10 09:49:24;;;;;;;7.88;3.00;;;26.20;58.00;;;;;;6188355;28;20206;-70
2021/09/10 09:52:26;;;;;;;8.52;2.90;;;26.30;57.30;;;;;;6200999;28;20216;-69
2021/09/10 09:55:29;;;;;;;3.65;2.80;;;26.40;56.80;;;;;;6197114;28;20193;-70
2021/09/10 09:58:31;;;;;;;7.15;2.80;;;26.50;56.70;;;;;;6211991;28;20218;-70
2021/09/10 10:01:34;;;;;;;4.10;2.60;;;26.60;56.70;;;;;;6197005;28;20236;-71
2021/09/10 10:04:37;;;;;;;3.78;2.50;;;27.00;57.60;;;;;;6197036;28;20439;-71
2021/09/10 10:07:47;;;;;;;6.57;2.55;;;27.20;56.60;;;;;;6196778;28;20224;-70
2021/09/10 10:10:54;;;;;;;9.98;2.70;;;27.30;55.80;;;;;;6211881;28;20201;-70
2021/09/10 10:13:59;;;;;;;6.40;2.80;;;27.40;56.20;;;;;;6197288;28;20197;-70
2021/09/10 10:17:02;;;;;;;5.13;2.92;;;27.50;55.90;;;;;;6202444;28;20200;-70
2021/09/10 10:20:05;;;;;;;3.45;2.58;;;27.50;54.80;;;;;;6195097;28;20208;-70
2021/09/10 10:23:44;;;;;;;6.43;3.13;;;27.90;56.20;;;;;;6211693;28;20194;-70
2021/09/10 10:26:46;;;;;;;6.07;2.38;;;28.30;53.70;;;;;;6196489;28;20202;-70
2021/09/10 10:29:50;;;;;;;7.15;2.33;;;28.30;56.00;;;;;;6196212;28;20194;-70
2021/09/10 10:32:53;;;;;;;3.65;2.22;;;28.60;53.60;;;;;;6195011;28;20193;-70
2021/09/10 10:35:56;;;;;;;4.30;2.63;;;28.90;53.60;;;;;;6196390;28;20568;-70
2021/09/10 10:39:14;;;;;;;4.68;3.05;;;29.10;52.80;;;;;;6196239;28;20185;-69
2021/09/10 10:42:16;;;;;;;6.25;2.80;;;29.40;51.90;;;;;;6195126;28;20838;-70
2021/09/10 10:45:40;;;;;;;5.05;2.58;;;29.10;51.50;;;;;;6195040;28;20213;-70
2021/09/10 10:48:44;;;;;;;3.35;2.40;;;29.20;54.30;;;;;;6207302;28;20190;-70
2021/09/10 10:51:46;;;;;;;3.55;2.33;;;29.30;50.40;;;;;;6195890;28;20224;-70
2021/09/10 10:55:21;;;;;;;5.10;2.50;;;29.10;50.40;;;;;;6194718;28;20224;-70
2021/09/10 10:58:26;;;;;;;4.88;2.28;;;29.20;51.30;;;;;;6196178;28;20269;-70
2021/09/10 11:01:29;;;;;;;5.88;2.78;;;29.30;51.80;;;;;;6210806;28;20244;-70
2021/09/10 11:04:39;;;;;;;4.55;2.42;;;29.50;50.50;;;;;;6193937;28;20201;-70
2021/09/10 11:07:44;;;;;;;3.97;2.25;;;29.80;49.40;;;;;;6195944;28;20205;-70
2021/09/10 11:10:52;;;;;;;4.65;2.78;;;29.50;48.60;;;;;;6194463;28;20324;-68
2021/09/10 11:13:55;;;;;;;7.18;2.83;;;29.30;47.40;;;;;;6210798;28;20194;-69
2021/09/10 11:17:11;;;;;;;5.22;2.38;;;29.00;47.50;;;;;;6219048;28;20193;-69
2021/09/10 11:20:13;;;;;;;3.72;2.47;;;28.90;47.30;;;;;;6195403;28;20209;-70
2021/09/10 11:23:18;;;;;;;6.25;2.35;;;28.90;47.70;;;;;;6195406;28;20219;-69
2021/09/10 11:26:21;;;;;;;3.30;2.35;;;28.90;47.60;;;;;;6194178;28;20693;-69
2021/09/10 11:29:23;;;;;;;3.03;2.28;;;28.90;47.50;;;;;;6195631;28;20223;-69
2021/09/10 11:32:26;;;;;;;3.50;2.13;;;29.30;49.60;;;;;;6195277;28;20223;-69
2021/09/10 11:35:31;;;;;;;3.50;2.25;;;29.70;48.50;;;;;;6195046;28;20252;-71
2021/09/10 11:38:34;;;;;;;6.28;2.30;;;29.90;47.50;;;;;;6195558;28;20364;-70
2021/09/10 11:41:55;;;;;;;3.45;2.15;;;30.10;46.90;;;;;;6195005;28;20230;-70
2021/09/10 11:45:11;;;;;;;2.40;2.10;;;30.30;45.80;;;;;;6195256;28;20196;-69
2021/09/10 11:48:24;;;;;;;3.55;2.40;;;30.80;45.80;;;;;;6194146;28;20196;-69
2021/09/10 11:51:43;;;;;;;3.60;2.10;;;30.70;43.90;;;;;;6195095;28;20166;-70
2021/09/10 11:55:14;;;;;;;2.80;2.35;;;30.30;43.60;;;;;;6195124;28;20320;-69
2021/09/10 11:58:18;;;;;;;3.42;2.38;;;30.20;43.40;;;;;;6194922;28;20189;-69
2021/09/10 12:01:42;;;;;;;2.38;2.05;;;30.30;43.80;;;;;;6194921;28;20319;-69
2021/09/10 12:04:55;;;;;;;5.03;2.17;;;30.60;44.30;;;;;;6194893;28;20198;-69
2021/09/10 12:07:58;;;;;;;5.07;2.30;;;31.00;44.50;;;;;;6185515;28;20206;-69
2021/09/10 12:11:20;;;;;;;3.13;2.15;;;31.10;42.70;;;;;;6191634;28;20181;-69
2021/09/10 12:14:37;;;;;;;4.70;2.67;;;30.70;43.00;;;;;;6200217;28;20323;-70
2021/09/10 12:17:41;;;;;;;4.43;2.20;;;30.80;43.00;;;;;;6203283;28;20202;-69
2021/09/10 12:20:51;;;;;;;4.32;2.28;;;30.50;42.80;;;;;;6199440;28;20220;-69
2021/09/10 12:24:10;;;;;;;4.55;2.17;;;30.50;41.90;;;;;;6199417;28;20197;-70
2021/09/10 12:27:12;;;;;;;2.58;2.08;;;30.60;41.90;;;;;;6199172;28;20210;-69
2021/09/10 12:30:17;;;;;;;3.33;2.00;;;30.70;42.30;;;;;;6198082;28;20195;-71
2021/09/10 12:33:22;;;;;;;2.65;2.00;;;30.80;42.00;;;;;;6198249;28;20276;-69
2021/09/10 12:36:26;;;;;;;5.25;2.05;;;31.10;40.90;;;;;;6198251;28;20193;-69
2021/09/10 12:39:30;;;;;;;2.67;1.98;;;30.90;41.30;;;;;;6199093;28;20585;-69
2021/09/10 12:42:33;;;;;;;3.97;2.08;;;31.10;41.20;;;;;;6198964;28;20568;-68
2021/09/10 12:45:36;;;;;;;3.33;1.83;;;31.40;40.60;;;;;;6197813;28;20208;-70
2021/09/10 12:48:40;;;;;;;5.57;2.15;;;31.50;40.00;;;;;;6214118;28;20615;-69
2021/09/10 12:51:43;;;;;;;5.60;2.33;;;31.70;40.20;;;;;;6198777;28;20185;-69
2021/09/10 12:54:45;;;;;;;2.35;1.73;;;31.80;39.60;;;;;;6197584;28;20193;-69
2021/09/10 12:57:48;;;;;;;5.20;2.00;;;32.00;38.80;;;;;;6198430;28;20189;-69
2021/09/10 13:00:50;;;;;;;3.00;1.85;;;31.90;39.30;;;;;;6198521;28;20214;-70
2021/09/10 13:03:53;;;;;;;5.65;2.38;;;31.70;39.40;;;;;;6198216;28;20225;-71
2021/09/10 13:06:56;;;;;;;2.55;1.67;;;31.70;38.80;;;;;;6197146;28;20221;-70
2021/09/10 13:09:59;;;;;;;2.08;1.73;;;32.00;37.90;;;;;;6178277;28;20190;-70
2021/09/10 13:13:01;;;;;;;3.65;2.00;;;32.60;37.70;;;;;;6198357;28;20216;-70
2021/09/10 13:16:04;;;;;;;2.47;2.10;;;33.20;38.00;;;;;;6215811;28;20196;-69
2021/09/10 13:19:05;;;;;;;1.98;1.85;;;33.70;36.70;;;;;;6207900;28;20181;-70
2021/09/10 13:22:08;;;;;;;5.65;2.20;;;33.70;36.30;;;;;;6180952;28;20197;-70
2021/09/10 13:25:11;;;;;;;3.17;2.08;;;33.60;35.40;;;;;;6197652;28;20200;-70
2021/09/10 13:28:14;;;;;;;2.33;1.90;;;33.40;36.40;;;;;;6197574;28;20201;-70
2021/09/10 13:31:18;;;;;;;2.83;2.13;;;33.70;36.60;;;;;;6196773;28;20472;-70
2021/09/10 13:34:24;;;;;;;2.65;2.13;;;34.10;35.00;;;;;;6197733;28;20194;-70
2021/09/10 13:37:30;;;;;;;2.58;1.90;;;34.70;35.20;;;;;;6198016;28;20174;-70
2021/09/10 13:40:33;;;;;;;4.35;2.22;;;35.30;34.80;;;;;;6197798;28;20190;-71
2021/09/10 13:43:37;;;;;;;8.70;2.05;;;35.80;33.90;;;;;;6196246;28;20213;-70
2021/09/10 13:46:39;;;;;;;4.25;2.03;;;36.40;35.50;;;;;;6197425;28;20271;-70
2021/09/10 13:49:41;;;;;;;2.53;1.80;;;36.50;32.80;;;;;;6197462;28;20272;-70
2021/09/10 13:52:44;;;;;;;3.40;1.92;;;36.70;35.00;;;;;;6197454;28;20217;-69
2021/09/10 13:55:46;;;;;;;3.38;1.83;;;36.60;32.00;;;;;;6212202;28;20196;-70
2021/09/10 13:58:49;;;;;;;7.18;2.08;;;36.40;33.10;;;;;;6197275;28;20182;-71
2021/09/10 14:01:52;;;;;;;3.85;1.55;;;36.40;32.50;;;;;;6197518;28;20229;-70
2021/09/10 14:04:54;;;;;;;6.28;2.30;;;36.50;32.10;;;;;;6195860;28;20573;-69
2021/09/10 14:07:57;;;;;;;4.53;2.10;;;36.30;31.60;;;;;;6196768;28;20200;-70
2021/09/10 14:11:00;;;;;;;4.22;2.10;;;36.00;31.90;;;;;;6197442;28;20189;-71
2021/09/10 14:14:02;;;;;;;2.65;1.90;;;35.30;32.60;;;;;;6197957;28;20276;-70
2021/09/10 14:17:04;;;;;;;3.10;2.15;;;34.20;34.00;;;;;;6209121;28;20207;-70
2021/09/10 14:20:08;;;;;;;4.55;2.30;;;32.80;35.10;;;;;;6196796;28;20189;-69
2021/09/10 14:23:11;;;;;;;4.40;1.98;;;31.50;35.60;;;;;;6211442;28;20216;-69
2021/09/10 14:26:15;;;;;;;3.75;2.00;;;30.50;37.00;;;;;;6196397;28;20213;-69
2021/09/10 14:29:18;;;;;;;3.60;1.90;;;29.80;38.10;;;;;;6196778;28;20196;-68
2021/09/10 14:32:20;;;;;;;2.75;1.70;;;29.10;38.20;;;;;;6197021;28;20193;-69
2021/09/10 14:35:22;;;;;;;2.85;2.13;;;28.50;38.60;;;;;;6196350;28;20555;-69
2021/09/10 14:38:24;;;;;;;3.83;1.80;;;28.10;39.40;;;;;;6195350;28;20215;-69
2021/09/10 14:41:27;;;;;;;4.65;2.15;;;27.70;39.90;;;;;;6196103;28;20224;-69
2021/09/10 14:44:29;;;;;;;5.20;1.77;;;27.40;40.70;;;;;;6211285;28;20197;-69
2021/09/10 14:47:32;;;;;;;3.78;1.80;;;27.20;41.40;;;;;;6195956;28;20198;-69
2021/09/10 14:50:34;;;;;;;3.05;2.10;;;27.00;41.70;;;;;;6196473;28;20260;-69
2021/09/10 14:53:37;;;;;;;2.75;1.83;;;26.90;43.00;;;;;;6194769;28;20200;-70
2021/09/10 14:56:39;;;;;;;7.03;2.03;;;26.80;43.90;;;;;;6210951;28;20213;-69
2021/09/10 15:00:01;;;;;;;5.18;1.90;;;26.80;41.70;;;;;;6210744;28;20226;-68
2021/09/10 15:03:03;;;;;;;5.35;1.55;;;26.90;41.10;;;;;;6195570;28;20269;-69
2021/09/10 15:06:06;;;;;;;2.35;1.90;;;26.80;42.80;;;;;;6195747;28;20209;-70
2021/09/10 15:09:08;;;;;;;3.33;2.00;;;26.70;43.60;;;;;;6210466;28;20303;-69
2021/09/10 15:12:11;;;;;;;2.42;1.88;;;26.30;46.30;;;;;;6195654;28;20265;-69
2021/09/10 15:15:13;;;;;;;3.78;1.80;;;26.00;45.70;;;;;;6182819;28;20605;-68
2021/09/10 15:18:16;;;;;;;3.08;2.00;;;25.70;45.30;;;;;;6195409;28;20185;-69
2021/09/10 15:21:18;;;;;;;4.18;1.77;;;25.50;45.50;;;;;;6195606;28;20272;-68
2021/09/10 15:24:21;;;;;;;5.70;2.20;;;25.30;44.00;;;;;;6195420;28;20689;-69
2021/09/10 15:27:23;;;;;;;5.35;1.85;;;25.20;44.20;;;;;;6195281;28;20680;-69
2021/09/10 15:30:27;;;;;;;2.47;1.70;;;25.10;46.10;;;;;;6194187;28;20194;-69
2021/09/10 15:33:30;;;;;;;3.55;1.90;;;25.00;48.90;;;;;;6195116;28;20645;-69
2021/09/10 15:36:32;;;;;;;4.63;1.98;;;24.80;50.20;;;;;;6195297;28;20193;-70
2021/09/10 15:39:38;;;;;;;1.85;1.67;;;24.60;53.20;;;;;;6210213;28;20201;-69
2021/09/10 15:42:40;;;;;;;3.30;1.90;;;24.20;52.30;;;;;;6195195;28;20190;-69
2021/09/10 15:45:45;;;;;;;3.58;1.70;;;24.00;54.30;;;;;;6210122;28;20193;-69
2021/09/10 15:48:47;;;;;;;2.28;1.75;;;23.70;55.80;;;;;;6194334;28;20256;-69
2021/09/10 15:51:49;;;;;;;4.97;1.70;;;23.50;56.30;;;;;;6176126;28;20202;-69
2021/09/10 15:54:52;;;;;;;1.77;1.55;;;23.30;57.40;;;;;;6196689;28;20591;-69
2021/09/10 15:57:54;;;;;;;3.23;1.70;;;23.10;58.20;;;;;;6200047;28;20615;-69